createdAt,value
2022-09-28T00:02:00.852Z,97103.33
2022-09-28T00:04:29.497Z,97101.73
2022-09-28T00:06:58.572Z,97097.89
2022-09-28T00:09:27.479Z,97093.84
2022-09-28T00:11:57.444Z,97094.80
2022-09-28T00:14:26.770Z,97089.23
2022-09-28T00:16:55.459Z,97088.92
2022-09-28T00:19:24.547Z,97088.96
2022-09-28T00:21:53.539Z,97088.74
2022-09-28T00:24:27.369Z,97083.27
2022-09-28T00:27:10.002Z,97079.54
2022-09-28T00:29:39.015Z,97080.30
2022-09-28T00:32:12.088Z,97082.30
2022-09-28T00:34:43.569Z,97081.21
2022-09-28T00:37:14.561Z,97081.73
2022-09-28T00:39:44.326Z,97079.30
2022-09-28T00:42:22.109Z,97074.64
2022-09-28T00:44:54.835Z,97071.70
2022-09-28T00:47:47.105Z,97075.50
2022-09-28T00:50:36.168Z,97076.69
2022-09-28T00:53:18.953Z,97073.26
2022-09-28T00:56:04.009Z,97070.71
2022-09-28T00:58:38.324Z,97075.98
2022-09-28T01:01:07.924Z,97070.31
2022-09-28T01:03:38.686Z,97068.95
2022-09-28T01:06:09.189Z,97070.30
2022-09-28T01:08:40.015Z,97070.44
2022-09-28T01:11:09.189Z,97071.59
2022-09-28T01:13:39.825Z,97072.06
2022-09-28T01:16:23.815Z,97075.37
2022-09-28T01:19:28.783Z,97069.86
2022-09-28T01:22:32.745Z,97071.57
2022-09-28T01:25:26.206Z,97069.13
2022-09-28T01:27:59.344Z,97069.43
2022-09-28T01:30:29.122Z,97070.04
2022-09-28T01:33:13.423Z,97067.88
2022-09-28T01:35:53.693Z,97064.75
2022-09-28T01:38:40.184Z,97063.55
2022-09-28T01:41:10.714Z,97060.60
2022-09-28T01:43:49.598Z,97056.95
2022-09-28T01:46:22.578Z,97054.01
2022-09-28T01:48:58.321Z,97051.23
2022-09-28T01:51:41.605Z,97051.88
2022-09-28T01:54:15.010Z,97052.27
2022-09-28T01:56:54.663Z,97054.51
2022-09-28T01:59:29.209Z,97053.98
2022-09-28T02:02:07.534Z,97052.29
2022-09-28T02:04:46.467Z,97050.71
2022-09-28T02:07:21.638Z,97049.15
2022-09-28T02:09:59.778Z,97050.04
2022-09-28T02:12:51.685Z,97044.72
2022-09-28T02:15:52.201Z,97044.54
2022-09-28T02:18:20.869Z,97044.25
2022-09-28T02:21:07.431Z,97040.56
2022-09-28T02:23:45.011Z,97038.11
2022-09-28T02:26:18.595Z,97035.30
2022-09-28T02:28:47.275Z,97036.05
2022-09-28T02:31:16.515Z,97033.88
2022-09-28T02:33:47.020Z,97034.45
2022-09-28T02:36:15.971Z,97034.52
2022-09-28T02:38:44.947Z,97034.63
2022-09-28T02:41:48.591Z,97035.38
2022-09-28T02:44:35.163Z,97037.85
2022-09-28T02:47:04.548Z,97033.20
2022-09-28T02:50:11.353Z,97034.93
2022-09-28T02:53:18.004Z,97032.64
2022-09-28T02:56:25.667Z,97027.10
2022-09-28T02:59:24.914Z,97029.85
2022-09-28T03:02:06.527Z,97024.70
2022-09-28T03:04:37.833Z,97024.87
2022-09-28T03:07:23.342Z,97025.88
2022-09-28T03:10:18.243Z,97028.83
2022-09-28T03:12:49.304Z,97025.21
2022-09-28T03:15:30.641Z,97029.93
2022-09-28T03:18:00.184Z,97027.73
2022-09-28T03:20:30.422Z,97020.16
2022-09-28T03:25:48.182Z,97022.73
2022-09-28T03:28:17.935Z,97020.90
2022-09-28T03:30:46.496Z,97018.86
2022-09-28T03:33:15.869Z,97016.33
2022-09-28T03:35:48.473Z,97018.08
2022-09-28T03:38:19.305Z,97014.77
2022-09-28T03:40:56.633Z,97013.70
2022-09-28T03:43:27.298Z,97014.17
2022-09-28T03:45:59.517Z,97015.04
2022-09-28T03:48:32.927Z,97015.39
2022-09-28T03:51:06.315Z,97017.31
2022-09-28T03:53:36.881Z,97015.24
2022-09-28T03:56:13.574Z,97016.27
2022-09-28T03:58:43.820Z,97014.39
2022-09-28T04:01:18.553Z,97012.50
2022-09-28T04:03:53.159Z,97009.73
2022-09-28T04:06:22.215Z,97011.35
2022-09-28T04:08:51.726Z,97007.82
2022-09-28T04:11:21.205Z,97007.22
2022-09-28T04:13:50.547Z,97006.89
2022-09-28T04:16:20.005Z,97003.63
2022-09-28T04:18:59.569Z,97003.36
2022-09-28T04:21:34.400Z,97007.25
2022-09-28T04:24:08.527Z,97007.20
2022-09-28T04:26:38.958Z,97006.36
2022-09-28T04:29:19.704Z,97003.04
2022-09-28T04:31:54.304Z,97006.16
2022-09-28T04:34:34.499Z,97003.06
2022-09-28T04:37:04.882Z,97002.73
2022-09-28T04:39:33.808Z,97005.02
2022-09-28T04:42:02.874Z,97002.38
2022-09-28T04:44:31.652Z,97003.98
2022-09-28T04:47:05.419Z,97005.80
2022-09-28T04:49:35.787Z,97001.41
2022-09-28T04:52:19.241Z,97004.91
2022-09-28T04:54:50.698Z,97001.30
2022-09-28T04:57:19.612Z,97002.67
2022-09-28T04:59:48.173Z,96997.16
2022-09-28T05:02:17.566Z,96994.09
2022-09-28T05:05:05.894Z,96993.95
2022-09-28T05:07:46.405Z,96997.36
2022-09-28T05:10:15.235Z,96994.04
2022-09-28T05:12:44.305Z,96990.58
2022-09-28T05:15:13.430Z,96990.02
2022-09-28T05:17:42.544Z,96986.89
2022-09-28T05:20:21.620Z,96985.52
2022-09-28T05:22:50.501Z,96983.27
2022-09-28T05:25:19.914Z,96980.51
2022-09-28T05:27:58.072Z,96980.64
2022-09-28T05:30:47.765Z,96981.25
2022-09-28T05:33:33.260Z,96982.33
2022-09-28T05:36:12.437Z,96983.00
2022-09-28T05:38:41.666Z,96987.63
2022-09-28T05:41:10.812Z,96990.04
2022-09-28T05:43:41.234Z,96990.36
2022-09-28T05:46:10.334Z,96993.20
2022-09-28T05:48:41.558Z,96994.52
2022-09-28T05:51:11.047Z,96998.89
2022-09-28T05:53:40.114Z,97001.66
2022-09-28T05:56:08.874Z,97001.60
2022-09-28T05:58:40.831Z,96997.38
2022-09-28T06:01:10.901Z,96993.09
2022-09-28T06:03:39.702Z,96991.59
2022-09-28T06:06:09.065Z,96992.84
2022-09-28T06:08:38.576Z,96989.41
2022-09-28T06:11:46.413Z,96984.16
2022-09-28T06:14:28.911Z,96981.67
2022-09-28T06:16:58.453Z,96982.26
2022-09-28T06:19:26.975Z,96979.42
2022-09-28T06:22:09.753Z,96973.09
2022-09-28T06:24:47.924Z,96972.75
2022-09-28T06:27:17.556Z,96974.21
2022-09-28T06:29:46.544Z,96970.39
2022-09-28T06:32:15.027Z,96969.53
2022-09-28T06:34:46.000Z,96972.35
2022-09-28T06:59:24.770Z,96978.55
2022-09-28T07:01:54.905Z,96984.22
2022-09-28T07:04:50.432Z,96979.60
2022-09-28T07:07:55.991Z,96983.54
2022-09-28T07:17:49.888Z,96968.05
2022-09-28T07:40:56.953Z,96959.84
2022-09-28T07:43:33.355Z,96958.39
2022-09-28T07:46:27.915Z,96952.70
2022-09-28T07:49:42.571Z,96954.41
2022-09-28T07:56:24.774Z,96964.23
2022-09-28T08:33:29.501Z,96942.16
2022-09-28T08:36:29.196Z,96927.50
2022-09-28T08:39:10.597Z,96926.30
2022-09-28T08:42:35.129Z,96927.20
2022-09-28T08:45:29.069Z,96931.73
2022-09-28T08:48:52.271Z,96932.66
2022-09-28T08:52:01.872Z,96929.64
2022-09-28T08:54:50.717Z,96927.16
2022-09-28T08:57:45.542Z,96925.88
2022-09-28T09:00:21.918Z,96926.67
2022-09-28T09:02:50.908Z,96921.64
2022-09-28T09:05:24.605Z,96923.60
2022-09-28T09:08:26.828Z,96930.73
2022-09-28T09:11:05.786Z,96927.27
2022-09-28T09:14:03.450Z,96925.02
2022-09-28T09:17:00.388Z,96923.41
2022-09-28T09:20:02.993Z,96926.90
2022-09-28T09:23:06.012Z,96921.64
2022-09-28T09:25:48.012Z,96914.48
2022-09-28T09:28:25.843Z,96921.57
2022-09-28T09:31:09.513Z,96924.87
2022-09-28T09:33:58.693Z,96920.10
2022-09-28T09:37:09.426Z,96928.52
2022-09-28T09:40:35.544Z,96924.30
2022-09-28T09:43:50.275Z,96919.63
2022-09-28T09:46:54.482Z,96919.09
2022-09-28T09:50:30.338Z,96916.38
2022-09-28T09:53:38.530Z,96914.08
2022-09-28T09:56:23.135Z,96915.63
2022-09-28T09:59:24.634Z,96915.75
2022-09-28T10:02:39.869Z,96919.85
2022-09-28T10:09:16.196Z,96932.66
2022-09-28T10:12:32.013Z,96935.27
2022-09-28T10:19:11.758Z,96934.65
2022-09-28T10:22:02.898Z,96936.33
2022-09-28T10:24:34.511Z,96935.91
2022-09-28T10:27:11.905Z,96937.23
2022-09-28T10:29:50.118Z,96941.70
2022-09-28T10:32:25.652Z,96942.56
2022-09-28T10:35:42.726Z,96940.14
2022-09-28T10:38:19.882Z,96945.33
2022-09-28T10:41:10.712Z,96934.02
2022-09-28T10:44:12.311Z,96934.86
2022-09-28T10:47:01.321Z,96932.59
2022-09-28T10:49:46.562Z,96930.50
2022-09-28T10:52:35.176Z,96928.23
2022-09-28T10:55:25.352Z,96925.16
2022-09-28T10:57:54.499Z,96926.27
2022-09-28T11:00:32.906Z,96924.56
2022-09-28T11:03:27.085Z,96920.51
2022-09-28T11:06:03.846Z,96917.12
2022-09-28T11:08:44.557Z,96913.25
2022-09-28T11:11:32.699Z,96907.02
2022-09-28T11:14:42.645Z,96908.05
2022-09-28T11:17:30.260Z,96902.88
2022-09-28T11:20:28.008Z,96906.77
2022-09-28T11:23:01.550Z,96918.71
2022-09-28T11:25:33.651Z,96919.11
2022-09-28T11:28:05.338Z,96913.79
2022-09-28T11:30:44.911Z,96918.33
2022-09-28T11:33:38.044Z,96918.33
2022-09-28T11:36:29.242Z,96917.67
2022-09-28T11:39:11.619Z,96916.63
2022-09-28T11:42:06.481Z,96912.98
2022-09-28T11:44:47.040Z,96907.30
2022-09-28T11:47:41.437Z,96904.75
2022-09-28T11:50:28.915Z,96900.23
2022-09-28T11:53:01.241Z,96898.08
2022-09-28T11:55:51.158Z,96885.56
2022-09-28T11:58:41.548Z,96890.66
2022-09-28T12:01:20.395Z,96883.83
2022-09-28T12:04:25.445Z,96880.50
2022-09-28T12:07:01.727Z,96873.79
2022-09-28T12:09:37.504Z,96871.79
2022-09-28T12:12:25.655Z,96862.25
2022-09-28T12:15:13.108Z,96852.86
2022-09-28T12:18:04.114Z,96842.81
2022-09-28T12:20:38.944Z,96836.23
2022-09-28T12:23:21.316Z,96841.25
2022-09-28T12:25:58.291Z,96845.48
2022-09-28T12:28:48.012Z,96833.55
2022-09-28T12:31:25.063Z,96844.48
2022-09-28T12:33:53.894Z,96848.00
2022-09-28T12:36:42.121Z,96847.54
2022-09-28T12:39:56.946Z,96841.67
2022-09-28T12:42:44.954Z,96833.52
2022-09-28T12:45:38.760Z,96832.70
2022-09-28T12:48:40.854Z,96841.80
2022-09-28T12:52:01.722Z,96846.48
2022-09-28T12:54:42.761Z,96846.83
2022-09-28T12:57:38.203Z,96846.08
2022-09-28T13:00:32.446Z,96843.69
2022-09-28T13:03:41.505Z,96839.84
2022-09-28T13:06:15.782Z,96840.42
2022-09-28T13:08:44.800Z,96839.15
2022-09-28T13:11:33.795Z,96842.59
2022-09-28T13:14:35.301Z,96840.83
2022-09-28T13:17:35.266Z,96843.33
2022-09-28T13:20:23.618Z,96836.70
2022-09-28T13:23:10.475Z,96833.94
2022-09-28T13:25:51.635Z,96835.98
2022-09-28T13:28:26.280Z,96838.77
2022-09-28T13:31:00.032Z,96845.99
2022-09-28T13:33:38.767Z,96842.00
2022-09-28T13:36:32.627Z,96842.28
2022-09-28T13:39:02.666Z,96842.27
2022-09-28T13:41:40.851Z,96844.00
2022-09-28T13:44:22.156Z,96838.59
2022-09-28T13:47:42.662Z,96840.25
2022-09-28T13:50:22.239Z,96836.55
2022-09-28T13:53:12.953Z,96834.95
2022-09-28T13:56:02.192Z,96833.16
2022-09-28T13:58:43.830Z,96832.51
2022-09-28T14:01:19.495Z,96830.36
2022-09-28T14:04:24.168Z,96827.71
2022-09-28T14:07:17.165Z,96812.73
2022-09-28T14:10:17.301Z,96823.52
2022-09-28T14:12:51.675Z,96820.20
2022-09-28T14:15:29.632Z,96815.65
2022-09-28T14:18:13.766Z,96819.20
2022-09-28T14:20:56.433Z,96817.28
2022-09-28T14:24:02.243Z,96819.11
2022-09-28T14:26:42.880Z,96815.77
2022-09-28T14:29:29.116Z,96817.45
2022-09-28T14:32:10.164Z,96814.08
2022-09-28T14:34:43.340Z,96807.84
2022-09-28T14:37:43.926Z,96806.48
2022-09-28T14:41:09.683Z,96800.17
2022-09-28T14:43:45.564Z,96808.65
2022-09-28T14:46:15.181Z,96812.55
2022-09-28T14:48:54.663Z,96818.42
2022-09-28T14:51:34.189Z,96811.52
2022-09-28T14:54:35.840Z,96815.59
2022-09-28T14:57:08.631Z,96819.73
2022-09-28T14:59:44.498Z,96811.86
2022-09-28T15:02:33.537Z,96806.86
2022-09-28T15:05:14.833Z,96811.58
2022-09-28T15:07:51.048Z,96819.96
2022-09-28T15:10:31.860Z,96815.14
2022-09-28T15:13:16.540Z,96820.00
2022-09-28T15:15:50.833Z,96823.89
2022-09-28T15:18:19.766Z,96827.31
2022-09-28T15:20:50.149Z,96820.23
2022-09-28T15:23:34.437Z,96826.63
2022-09-28T15:26:07.427Z,96836.00
2022-09-28T15:28:45.247Z,96828.56
2022-09-28T15:31:22.816Z,96840.77
2022-09-28T15:34:09.896Z,96846.67
2022-09-28T15:36:43.477Z,96855.10
2022-09-28T15:39:32.118Z,96852.19
2022-09-28T15:42:02.542Z,96857.88
2022-09-28T15:44:33.619Z,96863.83
2022-09-28T15:47:07.295Z,96867.16
2022-09-28T15:49:41.562Z,96863.71
2022-09-28T15:52:23.398Z,96869.34
2022-09-28T15:54:52.522Z,96868.68
2022-09-28T15:57:40.461Z,96871.56
2022-09-28T16:00:21.231Z,96871.73
2022-09-28T16:03:00.672Z,96872.13
2022-09-28T16:05:36.292Z,96882.39
2022-09-28T16:08:06.100Z,96884.55
2022-09-28T16:10:35.450Z,96885.03
2022-09-28T16:13:20.889Z,96891.35
2022-09-28T16:15:58.285Z,96890.20
2022-09-28T16:18:30.789Z,96885.75
2022-09-28T16:21:25.443Z,96887.77
2022-09-28T16:23:59.281Z,96892.68
2022-09-28T16:26:33.123Z,96894.38
2022-09-28T16:29:09.904Z,96891.99
2022-09-28T16:31:41.746Z,96899.09
2022-09-28T16:34:20.409Z,96897.93
2022-09-28T16:36:50.046Z,96902.91
2022-09-28T16:39:19.854Z,96907.55
2022-09-28T16:41:56.455Z,96918.98
2022-09-28T16:44:28.781Z,96920.60
2022-09-28T16:47:00.573Z,96919.67
2022-09-28T16:49:31.930Z,96921.02
2022-09-28T16:52:02.886Z,96921.58
2022-09-28T16:54:50.714Z,96927.14
2022-09-28T16:57:19.308Z,96932.73
2022-09-28T16:59:48.289Z,96931.83
2022-09-28T17:02:45.595Z,96935.88
2022-09-28T17:05:37.374Z,96938.31
2022-09-28T17:08:32.650Z,96944.11
2022-09-28T17:11:29.979Z,96946.00
2022-09-28T17:14:18.400Z,96951.90
2022-09-28T17:17:16.959Z,96961.13
2022-09-28T17:20:11.159Z,96965.48
2022-09-28T17:23:00.656Z,96970.34
2022-09-28T17:25:50.366Z,96984.34
2022-09-28T17:28:42.545Z,96980.04
2022-09-28T17:31:31.723Z,96976.35
2022-09-28T17:34:18.715Z,96988.06
2022-09-28T17:37:22.160Z,96992.40
2022-09-28T17:39:54.238Z,96995.70
2022-09-28T17:42:23.323Z,97000.78
2022-09-28T17:44:53.240Z,97008.98
2022-09-28T17:47:22.464Z,97021.56
2022-09-28T17:49:52.121Z,97015.39
2022-09-28T17:52:20.756Z,97017.80
2022-09-28T17:54:49.772Z,97020.16
2022-09-28T17:57:18.489Z,97027.05
2022-09-28T17:59:47.045Z,97026.98
2022-09-28T18:02:16.152Z,97024.30
2022-09-28T18:04:52.279Z,97020.08
2022-09-28T18:07:21.631Z,97021.04
2022-09-28T18:09:57.104Z,97019.14
2022-09-28T18:12:26.175Z,97028.29
2022-09-28T18:14:54.822Z,97025.91
2022-09-28T18:17:23.470Z,97035.60
2022-09-28T18:19:52.603Z,97029.51
2022-09-28T18:22:21.265Z,97029.42
2022-09-28T18:24:50.032Z,97031.65
2022-09-28T18:27:19.888Z,97033.98
2022-09-28T18:29:48.356Z,97031.20
2022-09-28T18:32:17.124Z,97035.36
2022-09-28T18:34:46.136Z,97034.98
2022-09-28T18:37:14.745Z,97034.63
2022-09-28T18:39:43.350Z,97032.97
2022-09-28T18:42:13.568Z,97039.10
2022-09-28T18:44:42.237Z,97040.39
2022-09-28T18:47:14.080Z,97041.45
2022-09-28T18:49:46.523Z,97044.09
2022-09-28T18:52:15.907Z,97045.35
2022-09-28T18:54:47.158Z,97047.20
2022-09-28T18:57:17.260Z,97050.02
2022-09-28T18:59:47.380Z,97055.46
2022-09-28T19:02:16.061Z,97057.29
2022-09-28T19:04:45.531Z,97055.78
2022-09-28T19:07:14.380Z,97065.56
2022-09-28T19:09:44.443Z,97071.58
2022-09-28T19:12:14.362Z,97069.61
2022-09-28T19:14:43.010Z,97075.21
2022-09-28T19:17:12.290Z,97074.11
2022-09-28T19:19:43.278Z,97076.93
2022-09-28T19:22:12.867Z,97086.41
2022-09-28T19:24:41.660Z,97076.99
2022-09-28T19:27:10.544Z,97082.89
2022-09-28T19:29:39.348Z,97083.64
2022-09-28T19:32:09.251Z,97081.96
2022-09-28T19:34:38.828Z,97078.90
2022-09-28T19:37:07.654Z,97078.99
2022-09-28T19:39:36.616Z,97081.98
2022-09-28T19:42:05.632Z,97086.19
2022-09-28T19:44:35.975Z,97082.98
2022-09-28T19:47:07.572Z,97089.38
2022-09-28T19:49:40.425Z,97090.44
2022-09-28T19:52:16.537Z,97089.63
2022-09-28T19:54:57.138Z,97092.77
2022-09-28T19:57:31.332Z,97103.72
2022-09-28T20:00:03.611Z,97106.41
2022-09-28T20:02:38.581Z,97103.43
2022-09-28T20:05:07.768Z,97106.46
2022-09-28T20:07:37.102Z,97109.80
2022-09-28T20:10:06.510Z,97116.59
2022-09-28T20:12:35.496Z,97112.83
2022-09-28T20:15:05.590Z,97110.58
2022-09-28T20:17:35.855Z,97114.34
2022-09-28T20:20:04.996Z,97115.22
2022-09-28T20:22:33.435Z,97112.84
2022-09-28T20:25:03.110Z,97121.20
2022-09-28T20:27:33.236Z,97129.55
2022-09-28T20:30:01.840Z,97136.45
2022-09-28T20:32:34.507Z,97135.65
2022-09-28T20:35:03.370Z,97140.38
2022-09-28T20:37:33.257Z,97148.48
2022-09-28T20:40:02.689Z,97152.27
2022-09-28T20:42:32.353Z,97145.90
2022-09-28T20:45:01.195Z,97148.36
2022-09-28T20:47:30.399Z,97151.13
2022-09-28T20:49:59.255Z,97162.02
2022-09-28T20:52:27.956Z,97162.91
2022-09-28T20:54:56.787Z,97169.02
2022-09-28T20:57:25.686Z,97171.35
2022-09-28T20:59:54.952Z,97178.08
2022-09-28T21:02:24.223Z,97183.81
2022-09-28T21:04:52.984Z,97184.23
2022-09-28T21:07:21.516Z,97191.08
2022-09-28T21:09:51.063Z,97189.16
2022-09-28T21:12:19.730Z,97192.40
2022-09-28T21:14:48.408Z,97189.94
2022-09-28T21:17:17.429Z,97191.89
2022-09-28T21:19:46.236Z,97200.08
2022-09-28T21:22:14.753Z,97195.97
2022-09-28T21:24:43.812Z,97201.64
2022-09-28T21:27:12.527Z,97203.66
2022-09-28T21:29:41.106Z,97207.44
2022-09-28T21:32:10.266Z,97209.17
2022-09-28T21:34:39.296Z,97210.37
2022-09-28T21:37:07.878Z,97216.19
2022-09-28T21:39:37.138Z,97213.27
2022-09-28T21:42:06.142Z,97215.77
2022-09-28T21:44:34.880Z,97225.69
2022-09-28T21:47:03.988Z,97228.15
2022-09-28T21:49:33.326Z,97230.77
2022-09-28T21:52:02.415Z,97232.85
2022-09-28T21:54:31.466Z,97231.80
2022-09-28T21:57:01.700Z,97232.62
2022-09-28T21:59:30.668Z,97241.70
2022-09-28T22:01:59.936Z,97239.08
2022-09-28T22:04:28.600Z,97240.98
2022-09-28T22:06:57.204Z,97242.74
2022-09-28T22:09:26.083Z,97249.97
2022-09-28T22:11:54.772Z,97253.06
2022-09-28T22:14:23.292Z,97256.16
2022-09-28T22:16:52.751Z,97250.17
2022-09-28T22:19:21.370Z,97256.27
2022-09-28T22:21:49.917Z,97259.23
2022-09-28T22:24:19.063Z,97259.48
2022-09-28T22:26:47.820Z,97257.64
2022-09-28T22:29:17.223Z,97260.27
2022-09-28T22:31:46.298Z,97256.19
2022-09-28T22:34:15.182Z,97261.21
2022-09-28T22:36:43.850Z,97261.75
2022-09-28T22:39:13.426Z,97268.30
2022-09-28T22:41:44.193Z,97265.21
2022-09-28T22:44:12.673Z,97271.39
2022-09-28T22:46:41.743Z,97269.48
2022-09-28T22:49:17.673Z,97274.28
2022-09-28T22:51:48.800Z,97270.30
2022-09-28T22:54:18.078Z,97280.08
2022-09-28T22:56:46.785Z,97278.05
2022-09-28T22:59:15.428Z,97282.54
2022-09-28T23:01:44.179Z,97282.75
2022-09-28T23:04:13.091Z,97281.23
2022-09-28T23:06:41.769Z,97277.29
2022-09-28T23:09:10.397Z,97278.67
2022-09-28T23:11:39.205Z,97274.02
2022-09-28T23:14:11.834Z,97277.46
2022-09-28T23:16:41.518Z,97275.86
2022-09-28T23:19:09.907Z,97270.52
2022-09-28T23:21:38.988Z,97266.02
2022-09-28T23:24:10.958Z,97268.78
2022-09-28T23:26:39.832Z,97273.25
2022-09-28T23:29:11.780Z,97271.19
2022-09-28T23:31:41.348Z,97270.33
2022-09-28T23:34:10.752Z,97269.79
2022-09-28T23:36:39.502Z,97262.71
2022-09-28T23:39:09.947Z,97263.91
2022-09-28T23:41:40.137Z,97260.09
2022-09-28T23:44:08.871Z,97272.99
2022-09-28T23:46:39.274Z,97275.48
2022-09-28T23:49:08.217Z,97278.28
2022-09-28T23:51:36.944Z,97273.67
2022-09-28T23:54:07.198Z,97285.77
2022-09-28T23:56:36.203Z,97285.80
2022-09-28T23:59:05.738Z,97281.33
